Time;durP1;ratioP1;P1;durP2;ratioP2;P2;SDS_P1;SDS_P2;PMS_P1;PMS_P2;Temp;Humidity;BMP_temperature;BMP_pressure;BME280_temperature;BME280_humidity;BME280_pressure;Samples;Min_cycle;Max_cycle;Signal;HPM_P1;HPM_P2
2024/02/22 00:01:18;;;;;;;3.75;1.30;;;10.60;99.90;;;;;;5018097;28;20040;-74
2024/02/22 00:03:44;;;;;;;6.15;1.90;;;10.60;99.90;;;;;;5017036;28;20029;-74
2024/02/22 00:06:10;;;;;;;2.47;1.38;;;10.70;99.90;;;;;;5018402;28;20029;-75
2024/02/22 00:08:35;;;;;;;3.72;1.10;;;10.70;99.90;;;;;;5018742;28;20033;-74
2024/02/22 00:11:03;;;;;;;4.65;1.38;;;10.80;99.90;;;;;;5018404;28;20041;-74
2024/02/22 00:13:29;;;;;;;3.92;1.40;;;10.80;99.90;;;;;;5016533;28;20480;-75
2024/02/22 00:15:55;;;;;;;5.53;1.13;;;10.90;99.90;;;;;;5019010;28;20033;-74
2024/02/22 00:18:21;;;;;;;6.03;1.30;;;10.90;99.90;;;;;;5019044;28;20129;-74
2024/02/22 00:20:47;;;;;;;3.22;1.23;;;10.90;99.90;;;;;;5018291;28;20045;-74
2024/02/22 00:23:13;;;;;;;3.85;1.10;;;10.90;99.90;;;;;;5018634;28;20034;-74
2024/02/22 00:25:39;;;;;;;2.53;1.20;;;11.00;99.90;;;;;;5015390;28;20026;-74
2024/02/22 00:28:05;;;;;;;4.75;1.00;;;10.90;99.90;;;;;;5017381;28;20117;-74
2024/02/22 00:30:33;;;;;;;7.00;1.52;;;10.90;99.90;;;;;;5020086;28;20034;-74
2024/02/22 00:32:59;;;;;;;4.22;1.25;;;10.90;99.90;;;;;;5020314;28;20036;-74
2024/02/22 00:35:25;;;;;;;5.18;1.30;;;10.90;99.90;;;;;;5020694;28;20029;-74
2024/02/22 00:37:50;;;;;;;2.08;1.27;;;10.90;99.90;;;;;;5022471;28;20042;-74
2024/02/22 00:40:17;;;;;;;5.38;1.10;;;10.90;99.90;;;;;;5022554;28;20527;-74
2024/02/22 00:42:44;;;;;;;4.50;1.17;;;10.90;99.90;;;;;;5022197;28;20060;-74
2024/02/22 00:45:10;;;;;;;5.60;1.30;;;10.90;99.60;;;;;;5021231;28;20686;-74
2024/02/22 00:47:36;;;;;;;5.75;1.35;;;11.00;99.90;;;;;;5021885;28;20751;-74
2024/02/22 00:50:02;;;;;;;3.70;0.80;;;11.00;99.90;;;;;;5022103;28;20041;-74
2024/02/22 00:52:29;;;;;;;3.20;1.08;;;11.00;99.00;;;;;;5022763;28;20044;-74
2024/02/22 00:54:55;;;;;;;5.93;1.10;;;11.10;98.90;;;;;;5022207;28;20647;-74
2024/02/22 00:57:21;;;;;;;3.50;0.90;;;11.10;98.40;;;;;;5021190;28;20152;-74
2024/02/22 00:59:47;;;;;;;4.15;1.20;;;11.10;98.70;;;;;;5021618;28;20476;-74
2024/02/22 01:02:12;;;;;;;4.07;1.35;;;11.10;98.90;;;;;;5021977;28;20755;-74
2024/02/22 01:04:38;;;;;;;1.50;0.85;;;11.10;98.70;;;;;;5019957;28;20095;-74
2024/02/22 01:07:04;;;;;;;5.05;1.08;;;11.10;98.40;;;;;;5022087;28;20033;-74
2024/02/22 01:09:30;;;;;;;3.55;1.40;;;11.10;98.90;;;;;;5020785;28;20036;-74
2024/02/22 01:11:57;;;;;;;3.05;1.05;;;11.10;99.10;;;;;;5021168;28;20029;-74
2024/02/22 01:14:23;;;;;;;1.83;0.80;;;11.00;99.10;;;;;;5021661;28;20033;-74
2024/02/22 01:16:49;;;;;;;2.65;1.10;;;10.90;98.70;;;;;;5021992;28;20068;-74
2024/02/22 01:19:16;;;;;;;1.52;0.80;;;10.70;99.10;;;;;;5020865;28;20782;-74
2024/02/22 01:21:43;;;;;;;5.20;1.23;;;10.70;98.90;;;;;;5021179;28;20033;-74
2024/02/22 01:24:09;;;;;;;3.72;1.02;;;10.80;98.70;;;;;;5021301;28;20034;-74
2024/02/22 01:26:36;;;;;;;2.72;0.90;;;10.70;99.60;;;;;;5021121;28;20022;-74
2024/02/22 01:29:03;;;;;;;3.60;0.82;;;10.60;99.30;;;;;;5021860;28;20026;-74
2024/02/22 01:31:30;;;;;;;1.40;1.00;;;10.60;98.80;;;;;;5020878;28;20087;-74
2024/02/22 01:33:56;;;;;;;3.05;1.00;;;10.60;99.70;;;;;;5020923;28;20026;-74
2024/02/22 01:36:22;;;;;;;3.67;1.10;;;10.60;99.80;;;;;;5018978;28;20554;-74
2024/02/22 01:38:48;;;;;;;2.53;0.98;;;10.60;99.50;;;;;;5023046;28;20029;-74
2024/02/22 01:41:13;;;;;;;3.65;0.80;;;10.70;99.60;;;;;;5020844;28;20415;-74
2024/02/22 01:43:39;;;;;;;2.60;0.70;;;10.80;99.90;;;;;;5021229;28;20040;-74
2024/02/22 01:46:05;;;;;;;0.73;0.60;;;10.80;99.10;;;;;;5022545;28;20041;-74
2024/02/22 01:48:32;;;;;;;2.97;0.77;;;10.80;99.40;;;;;;5022298;28;20030;-74
2024/02/22 01:50:59;;;;;;;1.20;0.70;;;10.90;98.90;;;;;;5017814;28;20059;-74
2024/02/22 01:53:27;;;;;;;4.95;0.82;;;10.80;99.90;;;;;;5021124;28;20047;-74
2024/02/22 01:55:57;;;;;;;2.60;1.40;;;10.80;99.90;;;;;;5020898;28;20095;-75
2024/02/22 01:58:31;;;;;;;1.25;0.73;;;10.80;99.90;;;;;;5020103;28;20036;-74
2024/02/22 02:01:03;;;;;;;1.85;0.82;;;10.80;99.90;;;;;;5020571;28;20172;-74
2024/02/22 02:03:31;;;;;;;3.03;0.75;;;10.80;99.90;;;;;;5019857;28;20033;-74
2024/02/22 02:05:59;;;;;;;2.30;0.70;;;10.80;99.90;;;;;;5019397;28;20495;-74
2024/02/22 02:08:25;;;;;;;1.25;0.60;;;10.90;99.90;;;;;;5019115;28;20029;-74
2024/02/22 02:10:51;;;;;;;1.83;0.68;;;11.00;99.90;;;;;;5021493;28;20038;-74
2024/02/22 02:13:17;;;;;;;1.17;0.68;;;11.00;99.80;;;;;;5022008;28;20030;-74
2024/02/22 02:15:43;;;;;;;4.20;1.00;;;10.90;99.90;;;;;;5016611;28;20029;-74
2024/02/22 02:18:08;;;;;;;1.05;1.00;;;10.80;99.90;;;;;;5021706;28;20022;-74
2024/02/22 02:20:58;;;;;;;0.93;0.55;;;10.80;99.90;;;;;;5020505;28;20057;-73
2024/02/22 02:23:47;;;;;;;2.05;0.90;;;10.80;99.90;;;;;;5019483;28;20037;-73
2024/02/22 02:26:15;;;;;;;2.45;0.70;;;10.80;99.90;;;;;;5021784;28;20093;-74
2024/02/22 02:28:41;;;;;;;2.78;1.02;;;10.80;99.90;;;;;;5019486;28;20029;-74
2024/02/22 02:31:06;;;;;;;1.88;1.00;;;10.80;99.90;;;;;;5019419;28;20119;-74
2024/02/22 02:33:32;;;;;;;1.25;0.60;;;10.70;99.90;;;;;;5017418;28;20021;-74
2024/02/22 02:35:58;;;;;;;1.58;0.57;;;10.70;99.90;;;;;;5019492;28;20128;-74
2024/02/22 02:38:24;;;;;;;1.35;0.70;;;10.60;99.90;;;;;;5017997;28;20128;-74
2024/02/22 02:40:50;;;;;;;1.02;0.52;;;10.60;99.90;;;;;;5019163;28;20038;-74
2024/02/22 02:43:16;;;;;;;2.45;0.90;;;10.70;99.90;;;;;;5020831;28;20037;-74
2024/02/22 02:45:42;;;;;;;4.00;0.82;;;10.70;99.90;;;;;;5020225;28;20439;-74
2024/02/22 02:48:07;;;;;;;1.75;0.77;;;10.70;99.90;;;;;;5020920;28;20036;-74
2024/02/22 02:50:33;;;;;;;1.77;0.70;;;10.70;99.90;;;;;;5020679;28;20036;-74
2024/02/22 02:52:59;;;;;;;1.15;0.68;;;10.80;99.90;;;;;;5020355;28;20032;-74
2024/02/22 02:55:25;;;;;;;1.60;0.90;;;10.60;99.90;;;;;;5020582;28;20890;-74
2024/02/22 02:57:51;;;;;;;0.98;0.77;;;10.50;99.90;;;;;;5021231;28;20644;-74
2024/02/22 03:00:17;;;;;;;2.53;0.90;;;10.40;99.90;;;;;;5021687;28;20035;-74
2024/02/22 03:02:43;;;;;;;1.80;1.00;;;10.40;99.90;;;;;;5019845;28;20037;-74
2024/02/22 03:05:10;;;;;;;3.83;0.80;;;10.40;99.90;;;;;;5017180;28;20040;-74
2024/02/22 03:07:36;;;;;;;0.68;0.55;;;10.40;99.90;;;;;;5021794;28;20025;-74
2024/02/22 03:10:05;;;;;;;2.15;0.85;;;10.40;99.90;;;;;;5022194;28;20033;-74
2024/02/22 03:12:31;;;;;;;2.58;0.70;;;10.30;99.90;;;;;;5021888;28;20033;-74
2024/02/22 03:14:57;;;;;;;2.78;1.02;;;10.30;99.90;;;;;;5014517;28;20072;-74
2024/02/22 03:17:26;;;;;;;1.63;0.80;;;10.20;99.90;;;;;;5016209;28;20053;-74
2024/02/22 03:19:52;;;;;;;1.33;0.70;;;10.30;99.90;;;;;;5012795;28;20038;-74
2024/02/22 03:22:21;;;;;;;2.13;0.70;;;10.30;99.90;;;;;;5014611;28;20546;-74
2024/02/22 03:24:48;;;;;;;1.35;0.70;;;10.30;99.90;;;;;;5015279;28;20029;-74
2024/02/22 03:27:13;;;;;;;0.68;0.60;;;10.30;99.90;;;;;;5015919;28;20534;-74
2024/02/22 03:29:41;;;;;;;1.00;0.65;;;10.20;99.90;;;;;;5013952;28;20116;-74
2024/02/22 03:32:07;;;;;;;2.60;0.93;;;10.10;99.90;;;;;;5028831;28;20057;-74
2024/02/22 03:34:33;;;;;;;1.38;0.70;;;10.10;99.90;;;;;;5011307;28;20557;-74
2024/02/22 03:37:00;;;;;;;0.50;0.38;;;10.00;99.90;;;;;;5012025;28;20033;-74
2024/02/22 03:39:27;;;;;;;1.63;0.82;;;10.00;99.90;;;;;;5017115;28;20746;-74
2024/02/22 03:41:53;;;;;;;9.30;1.00;;;10.00;99.90;;;;;;5011793;28;20038;-74
2024/02/22 03:44:19;;;;;;;3.20;0.80;;;10.00;99.90;;;;;;5014883;28;20036;-74
2024/02/22 03:46:48;;;;;;;1.80;0.82;;;9.90;99.90;;;;;;5014356;28;20634;-75
2024/02/22 03:49:14;;;;;;;0.93;0.70;;;10.00;99.90;;;;;;5011813;28;20026;-74
2024/02/22 03:51:40;;;;;;;1.40;0.70;;;10.10;99.90;;;;;;5013414;28;20300;-74
2024/02/22 03:54:06;;;;;;;0.80;0.70;;;10.20;99.90;;;;;;5017291;28;20026;-74
2024/02/22 03:56:33;;;;;;;0.93;0.80;;;10.10;99.90;;;;;;5017605;28;20096;-74
2024/02/22 03:58:59;;;;;;;1.92;0.85;;;10.10;99.90;;;;;;5016014;28;20041;-74
2024/02/22 04:01:25;;;;;;;3.45;1.00;;;10.10;99.90;;;;;;5016348;28;20134;-74
2024/02/22 04:03:51;;;;;;;1.33;0.77;;;10.10;99.90;;;;;;5012748;28;20404;-74
2024/02/22 04:06:17;;;;;;;2.13;1.02;;;10.10;99.90;;;;;;5013563;28;20029;-75
2024/02/22 04:08:43;;;;;;;2.30;0.80;;;10.00;99.90;;;;;;5017067;28;20112;-74
2024/02/22 04:11:09;;;;;;;0.55;0.50;;;10.00;99.90;;;;;;5012659;28;20040;-74
2024/02/22 04:13:38;;;;;;;5.57;1.67;;;9.90;99.90;;;;;;5014899;28;20029;-74
2024/02/22 04:16:05;;;;;;;4.50;0.80;;;9.80;99.90;;;;;;5012244;28;20034;-74
2024/02/22 04:18:31;;;;;;;1.55;0.77;;;9.80;99.90;;;;;;5014614;28;20065;-74
2024/02/22 04:20:57;;;;;;;3.17;0.90;;;9.90;99.90;;;;;;5008400;28;20054;-74
2024/02/22 04:23:23;;;;;;;0.88;0.60;;;9.90;99.90;;;;;;5012999;28;20181;-74
2024/02/22 04:25:49;;;;;;;1.63;0.93;;;9.90;99.90;;;;;;5017415;28;20477;-74
2024/02/22 04:28:18;;;;;;;0.52;0.52;;;9.80;99.90;;;;;;5008219;28;20030;-74
2024/02/22 04:30:47;;;;;;;1.27;0.80;;;9.80;99.90;;;;;;5016068;28;20437;-74
2024/02/22 04:33:13;;;;;;;1.30;0.90;;;9.80;99.90;;;;;;5011950;28;20113;-74
2024/02/22 04:35:44;;;;;;;1.27;0.80;;;9.70;99.90;;;;;;5010406;28;20401;-74
2024/02/22 04:38:10;;;;;;;1.75;0.80;;;9.70;99.90;;;;;;5011852;28;20030;-74
2024/02/22 04:40:43;;;;;;;1.00;0.90;;;9.70;99.90;;;;;;5014168;28;20025;-74
2024/02/22 04:43:09;;;;;;;2.30;1.10;;;9.70;99.90;;;;;;5011579;28;20038;-74
2024/02/22 04:45:35;;;;;;;1.80;0.80;;;9.70;99.90;;;;;;5014841;28;20076;-74
2024/02/22 04:48:03;;;;;;;1.13;0.82;;;9.70;99.90;;;;;;5015318;28;20038;-74
2024/02/22 04:50:30;;;;;;;3.55;1.48;;;9.70;99.90;;;;;;5008401;28;20046;-74
2024/02/22 04:52:56;;;;;;;0.75;0.70;;;9.70;99.90;;;;;;5013636;28;20025;-74
2024/02/22 04:55:22;;;;;;;2.25;0.85;;;9.60;99.90;;;;;;5014579;28;20083;-73
2024/02/22 04:57:48;;;;;;;1.42;1.05;;;9.60;99.90;;;;;;5012981;28;20034;-74
2024/02/22 05:00:15;;;;;;;1.48;0.75;;;9.60;99.90;;;;;;5018101;28;20030;-74
2024/02/22 05:02:41;;;;;;;0.90;0.90;;;9.60;99.90;;;;;;5014500;28;20044;-74
2024/02/22 05:05:07;;;;;;;3.88;1.05;;;9.50;99.90;;;;;;4994057;28;20413;-74
2024/02/22 05:07:34;;;;;;;0.95;0.73;;;9.50;99.90;;;;;;5014431;28;20017;-74
2024/02/22 05:10:00;;;;;;;2.20;0.85;;;9.50;99.90;;;;;;5014882;28;20107;-74
2024/02/22 05:12:26;;;;;;;1.25;0.65;;;9.50;99.90;;;;;;5013294;28;20109;-74
2024/02/22 05:14:52;;;;;;;1.30;0.77;;;9.50;99.90;;;;;;5013047;28;20440;-74
2024/02/22 05:17:19;;;;;;;1.10;1.00;;;9.60;99.90;;;;;;5016414;28;20029;-74
2024/02/22 05:19:45;;;;;;;2.35;0.80;;;9.60;99.90;;;;;;5016690;28;20025;-73
2024/02/22 05:22:13;;;;;;;1.40;0.90;;;9.70;99.90;;;;;;5020764;28;20042;-74
2024/02/22 05:24:40;;;;;;;1.42;0.98;;;9.70;99.90;;;;;;5014707;28;20033;-74
2024/02/22 05:27:09;;;;;;;1.92;0.98;;;9.70;99.90;;;;;;5020192;28;20108;-74
2024/02/22 05:29:36;;;;;;;2.88;1.05;;;9.70;99.90;;;;;;5017429;28;20049;-74
2024/02/22 05:32:01;;;;;;;1.38;1.02;;;9.80;99.90;;;;;;5016052;28;20561;-73
2024/02/22 05:34:27;;;;;;;1.35;0.95;;;9.80;99.90;;;;;;5018457;28;20033;-73
2024/02/22 05:36:54;;;;;;;1.95;1.00;;;9.80;99.90;;;;;;5012445;28;20164;-74
2024/02/22 05:39:20;;;;;;;0.93;0.80;;;9.90;99.90;;;;;;5017757;28;20060;-74
2024/02/22 05:41:46;;;;;;;2.42;1.00;;;9.90;99.90;;;;;;5018223;28;20025;-74
2024/02/22 05:44:12;;;;;;;1.65;0.80;;;9.90;99.90;;;;;;5015334;28;20891;-74
2024/02/22 05:46:37;;;;;;;2.05;1.00;;;10.00;99.90;;;;;;5016093;28;20103;-74
2024/02/22 05:49:03;;;;;;;1.98;0.77;;;10.10;99.90;;;;;;5015276;28;20431;-74
2024/02/22 05:51:29;;;;;;;1.00;0.90;;;10.00;99.90;;;;;;5017800;28;20059;-74
2024/02/22 05:53:55;;;;;;;1.58;1.05;;;10.00;99.90;;;;;;5014623;28;20034;-74
2024/02/22 05:56:21;;;;;;;1.80;0.77;;;9.90;99.90;;;;;;5020490;28;20087;-74
2024/02/22 05:58:47;;;;;;;1.85;0.80;;;9.80;99.90;;;;;;5014688;28;20037;-74
2024/02/22 06:01:14;;;;;;;1.45;0.82;;;9.80;99.90;;;;;;5015641;28;20053;-74
2024/02/22 06:03:40;;;;;;;1.30;0.88;;;9.80;99.90;;;;;;5016573;28;20106;-74
2024/02/22 06:06:06;;;;;;;1.23;0.80;;;9.90;99.90;;;;;;5013804;28;20030;-74
2024/02/22 06:08:33;;;;;;;2.03;1.00;;;10.00;99.90;;;;;;5020826;28;20083;-74
2024/02/22 06:11:00;;;;;;;1.48;0.90;;;10.00;99.90;;;;;;5009579;28;20805;-74
2024/02/22 06:13:26;;;;;;;1.48;0.82;;;9.90;99.90;;;;;;5019748;28;20129;-74
2024/02/22 06:15:51;;;;;;;1.63;0.80;;;9.80;99.90;;;;;;5017422;28;20124;-74
2024/02/22 06:18:17;;;;;;;0.85;0.80;;;9.70;99.90;;;;;;5015942;28;20022;-74
2024/02/22 06:20:43;;;;;;;0.60;0.60;;;9.70;99.90;;;;;;5017202;28;20048;-73
2024/02/22 06:23:10;;;;;;;1.48;0.90;;;9.60;99.90;;;;;;5008084;28;20839;-74
2024/02/22 06:25:35;;;;;;;1.20;0.80;;;9.70;99.90;;;;;;5016976;28;20567;-74
2024/02/22 06:28:02;;;;;;;1.25;0.80;;;9.70;99.90;;;;;;5012906;28;20121;-73
2024/02/22 06:30:28;;;;;;;1.25;0.88;;;9.70;99.90;;;;;;5020726;28;20040;-73
2024/02/22 06:32:54;;;;;;;0.80;0.80;;;9.70;99.90;;;;;;5016053;28;20561;-73
2024/02/22 06:35:21;;;;;;;1.23;0.80;;;9.80;99.90;;;;;;5019879;28;20136;-74
2024/02/22 06:37:48;;;;;;;2.45;0.80;;;9.90;99.90;;;;;;5017730;28;20037;-74
2024/02/22 06:40:14;;;;;;;0.80;0.70;;;10.00;99.90;;;;;;5017728;28;20026;-74
2024/02/22 06:42:41;;;;;;;1.70;0.80;;;9.90;99.90;;;;;;5021330;28;20030;-74
2024/02/22 06:45:08;;;;;;;1.83;0.82;;;9.90;99.90;;;;;;5018460;28;20033;-74
2024/02/22 06:47:34;;;;;;;2.85;0.70;;;9.90;99.90;;;;;;5018233;28;20022;-74
2024/02/22 06:50:00;;;;;;;1.90;0.80;;;9.90;99.90;;;;;;5016715;28;20024;-74
2024/02/22 06:52:26;;;;;;;1.55;0.80;;;9.90;99.90;;;;;;5012850;28;20109;-73
2024/02/22 06:54:52;;;;;;;1.23;0.90;;;9.80;99.90;;;;;;5016028;28;20064;-74
2024/02/22 06:57:18;;;;;;;2.30;1.10;;;9.60;99.90;;;;;;5018982;28;20033;-74
2024/02/22 06:59:44;;;;;;;2.35;1.00;;;9.70;99.90;;;;;;5020783;28;20531;-73
2024/02/22 07:02:15;;;;;;;1.52;1.13;;;9.70;99.90;;;;;;5015159;28;20036;-73
2024/02/22 07:04:42;;;;;;;2.70;1.25;;;9.60;99.90;;;;;;5018276;28;20037;-74
2024/02/22 07:07:08;;;;;;;2.00;0.90;;;9.60;99.90;;;;;;5016343;28;20040;-74
2024/02/22 07:09:35;;;;;;;1.92;1.08;;;9.70;99.90;;;;;;5014475;28;20034;-73
2024/02/22 07:12:01;;;;;;;1.63;0.95;;;9.60;99.90;;;;;;5017565;28;20116;-74
2024/02/22 07:14:28;;;;;;;1.30;1.20;;;9.60;99.90;;;;;;5016608;28;20568;-74
2024/02/22 07:16:54;;;;;;;1.15;0.98;;;9.70;99.90;;;;;;5015810;28;20037;-76
2024/02/22 07:19:21;;;;;;;2.65;1.00;;;9.60;99.90;;;;;;5013639;28;20045;-76
2024/02/22 07:21:47;;;;;;;1.23;0.88;;;9.60;99.90;;;;;;5015074;28;20103;-76
2024/02/22 07:24:13;;;;;;;2.08;1.20;;;9.60;99.90;;;;;;5008097;28;20026;-76
2024/02/22 07:26:38;;;;;;;3.00;1.10;;;9.60;99.90;;;;;;5013067;28;20053;-76
2024/02/22 07:29:05;;;;;;;3.28;1.73;;;9.60;99.90;;;;;;5016567;28;20218;-76
2024/02/22 07:31:31;;;;;;;1.15;1.02;;;9.70;99.90;;;;;;5015655;28;20658;-75
2024/02/22 07:33:57;;;;;;;1.27;1.15;;;9.70;99.90;;;;;;5015465;28;20044;-76
2024/02/22 07:36:24;;;;;;;1.92;1.30;;;9.60;99.90;;;;;;5014150;28;20041;-76
2024/02/22 07:38:50;;;;;;;1.42;1.30;;;9.70;99.90;;;;;;5016000;28;20490;-78
2024/02/22 07:41:16;;;;;;;1.10;0.95;;;9.70;99.90;;;;;;5018556;28;20029;-76
2024/02/22 07:43:46;;;;;;;3.65;1.20;;;9.80;99.90;;;;;;5012311;28;20156;-76
2024/02/22 07:46:14;;;;;;;1.55;1.25;;;9.90;99.90;;;;;;4967613;28;20053;-76
2024/02/22 07:48:43;;;;;;;1.70;1.40;;;9.70;99.90;;;;;;5012637;28;20116;-76
2024/02/22 07:51:10;;;;;;;1.80;1.20;;;9.60;99.90;;;;;;5008850;28;20560;-76
2024/02/22 07:53:37;;;;;;;2.13;1.58;;;9.60;99.90;;;;;;5014200;28;20044;-76
2024/02/22 07:56:04;;;;;;;1.77;1.35;;;9.60;99.90;;;;;;5011630;28;20105;-75
2024/02/22 07:58:46;;;;;;;3.35;1.20;;;9.60;99.90;;;;;;5014802;28;20060;-77
2024/02/22 08:01:12;;;;;;;1.98;1.27;;;9.70;99.90;;;;;;5013074;28;20033;-75
2024/02/22 08:03:38;;;;;;;5.90;1.90;;;9.70;99.90;;;;;;5017521;28;20026;-78
2024/02/22 08:06:04;;;;;;;2.15;1.75;;;9.70;99.90;;;;;;5020005;28;20634;-78
2024/02/22 08:08:30;;;;;;;1.67;1.40;;;9.70;99.90;;;;;;5021351;28;20026;-76
2024/02/22 08:10:56;;;;;;;1.75;1.40;;;9.70;99.90;;;;;;5020603;28;20036;-77
2024/02/22 08:13:22;;;;;;;1.83;1.27;;;9.70;99.90;;;;;;5020030;28;20021;-76
2024/02/22 08:15:49;;;;;;;2.05;1.40;;;9.80;99.90;;;;;;5020852;28;20474;-76
2024/02/22 08:18:15;;;;;;;2.90;1.50;;;9.80;99.90;;;;;;5017287;28;20037;-76
2024/02/22 08:20:41;;;;;;;2.17;1.50;;;9.70;99.90;;;;;;5021909;28;20029;-76
2024/02/22 08:23:14;;;;;;;1.63;1.35;;;9.70;99.90;;;;;;5019003;28;20057;-77
2024/02/22 08:25:40;;;;;;;2.22;1.35;;;9.70;99.90;;;;;;5022561;28;20041;-76
2024/02/22 08:28:08;;;;;;;4.93;2.08;;;9.80;99.90;;;;;;5015998;28;20032;-76
2024/02/22 08:30:36;;;;;;;3.35;1.70;;;9.70;99.90;;;;;;5019424;28;20109;-76
2024/02/22 08:33:02;;;;;;;4.05;1.60;;;9.60;99.90;;;;;;5021641;28;20744;-76
2024/02/22 08:35:29;;;;;;;1.73;1.60;;;9.70;99.90;;;;;;5017549;28;20037;-77
2024/02/22 08:37:55;;;;;;;2.78;1.50;;;9.80;99.90;;;;;;5020164;28;20037;-77
2024/02/22 08:40:21;;;;;;;1.40;1.30;;;9.70;99.90;;;;;;5020539;28;20042;-77
2024/02/22 08:42:47;;;;;;;1.75;1.58;;;9.60;99.90;;;;;;5020721;28;20037;-77
2024/02/22 08:45:15;;;;;;;3.28;2.00;;;9.60;99.90;;;;;;5021013;28;20116;-78
2024/02/22 08:47:44;;;;;;;2.67;1.90;;;9.70;99.90;;;;;;5019797;28;20056;-76
2024/02/22 08:50:14;;;;;;;3.30;1.60;;;9.70;99.90;;;;;;5020906;28;20080;-78
2024/02/22 08:52:43;;;;;;;1.92;1.60;;;9.80;99.90;;;;;;5023780;28;20037;-77
2024/02/22 08:55:12;;;;;;;1.90;1.70;;;9.80;99.90;;;;;;5021906;28;20030;-77
2024/02/22 08:57:38;;;;;;;3.65;1.92;;;9.70;99.90;;;;;;5013611;28;20084;-77
2024/02/22 09:00:06;;;;;;;2.35;1.85;;;9.70;99.90;;;;;;5022651;28;20067;-77
2024/02/22 09:02:32;;;;;;;1.77;1.67;;;9.70;99.90;;;;;;5010208;28;20096;-77
2024/02/22 09:04:58;;;;;;;2.35;1.50;;;9.80;99.90;;;;;;5021607;28;20025;-77
2024/02/22 09:07:27;;;;;;;1.95;1.75;;;10.00;99.90;;;;;;5019902;28;20026;-77
2024/02/22 09:09:53;;;;;;;1.42;1.33;;;10.10;99.90;;;;;;5020865;28;20030;-77
2024/02/22 09:12:20;;;;;;;1.50;1.40;;;10.20;99.90;;;;;;5021451;28;20556;-76
2024/02/22 09:14:45;;;;;;;2.33;1.42;;;9.80;99.90;;;;;;5021164;28;20113;-76
2024/02/22 09:17:11;;;;;;;3.15;1.40;;;9.60;99.90;;;;;;5023777;28;20037;-74
2024/02/22 09:19:37;;;;;;;2.63;1.95;;;9.60;99.90;;;;;;5022499;28;20519;-77
2024/02/22 09:22:03;;;;;;;4.93;2.63;;;9.70;99.90;;;;;;5022307;28;20552;-77
2024/02/22 09:24:30;;;;;;;2.17;1.25;;;9.80;99.90;;;;;;5017063;28;20017;-77
2024/02/22 09:26:56;;;;;;;2.72;1.60;;;10.00;99.90;;;;;;5022109;28;20576;-77
2024/02/22 09:29:22;;;;;;;1.60;1.50;;;10.10;99.90;;;;;;5019119;28;20037;-78
2024/02/22 09:31:48;;;;;;;4.22;1.45;;;10.10;99.90;;;;;;5020167;28;20045;-73
2024/02/22 09:34:14;;;;;;;4.45;3.08;;;10.00;99.90;;;;;;5021519;28;20026;-76
2024/02/22 09:36:43;;;;;;;1.80;1.42;;;9.70;99.90;;;;;;5021361;28;21150;-76
2024/02/22 09:39:08;;;;;;;4.38;2.50;;;9.80;99.90;;;;;;5023162;28;20101;-77
2024/02/22 09:41:35;;;;;;;2.63;1.48;;;9.90;99.90;;;;;;5020294;28;20103;-76
2024/02/22 09:44:01;;;;;;;3.10;1.40;;;10.00;99.90;;;;;;5018899;28;20040;-77
2024/02/22 09:46:27;;;;;;;1.70;1.60;;;9.90;99.90;;;;;;5021078;28;20033;-77
2024/02/22 09:48:53;;;;;;;4.47;1.58;;;10.10;99.90;;;;;;5019486;28;20069;-77
2024/02/22 09:51:21;;;;;;;1.60;1.50;;;10.10;99.90;;;;;;5013361;28;20152;-77
2024/02/22 09:53:50;;;;;;;2.90;1.70;;;10.20;99.90;;;;;;5020263;28;20026;-77
2024/02/22 09:56:16;;;;;;;2.72;1.45;;;10.20;99.90;;;;;;5020012;28;20061;-77
2024/02/22 09:58:48;;;;;;;2.85;1.55;;;10.10;99.90;;;;;;5017920;28;20075;-77
2024/02/22 10:01:13;;;;;;;2.55;1.75;;;9.90;99.90;;;;;;5021857;28;20697;-76
2024/02/22 10:03:40;;;;;;;1.33;1.20;;;10.10;99.90;;;;;;5019893;28;20030;-77
2024/02/22 10:06:35;;;;;;;1.20;1.10;;;10.10;99.90;;;;;;5021725;28;20021;-77
2024/02/22 10:09:04;;;;;;;1.38;1.27;;;10.10;99.90;;;;;;5016571;28;20045;-77
2024/02/22 10:11:30;;;;;;;3.88;1.20;;;10.00;99.90;;;;;;5022734;28;20643;-77
2024/02/22 10:14:03;;;;;;;1.30;1.20;;;10.00;99.90;;;;;;5039850;28;20057;-77
2024/02/22 10:16:29;;;;;;;1.77;1.30;;;10.10;99.90;;;;;;5022518;28;20037;-77
2024/02/22 10:19:01;;;;;;;1.50;1.40;;;10.10;99.90;;;;;;5016965;28;20509;-76
2024/02/22 10:21:28;;;;;;;1.60;1.30;;;10.20;99.90;;;;;;5019789;28;20030;-77
2024/02/22 10:23:56;;;;;;;2.50;1.38;;;10.30;99.90;;;;;;5023045;28;20382;-77
2024/02/22 10:26:24;;;;;;;1.13;1.02;;;10.40;99.90;;;;;;5019415;28;20756;-76
2024/02/22 10:29:07;;;;;;;1.40;1.30;;;10.50;99.90;;;;;;5019950;28;20030;-77
2024/02/22 10:31:39;;;;;;;2.17;1.20;;;10.70;99.90;;;;;;5017350;28;20037;-76
2024/02/22 10:34:05;;;;;;;1.38;1.20;;;10.70;99.90;;;;;;4993217;28;20081;-77
2024/02/22 10:36:32;;;;;;;1.60;1.25;;;10.90;99.90;;;;;;5016509;28;20038;-77
2024/02/22 10:38:59;;;;;;;1.63;1.30;;;11.00;99.90;;;;;;5017757;28;20037;-77
2024/02/22 10:41:25;;;;;;;1.00;1.00;;;11.10;99.90;;;;;;5019392;28;20562;-77
2024/02/22 10:43:52;;;;;;;1.20;1.10;;;11.40;99.90;;;;;;5017358;28;20041;-78
2024/02/22 10:46:19;;;;;;;3.55;1.00;;;11.50;99.90;;;;;;5018186;28;20420;-77
2024/02/22 10:48:51;;;;;;;3.38;1.23;;;11.70;99.90;;;;;;5020397;28;20048;-77
2024/02/22 10:51:20;;;;;;;1.00;1.00;;;11.80;99.90;;;;;;5006260;28;20148;-77
2024/02/22 10:53:52;;;;;;;1.40;1.10;;;11.90;99.90;;;;;;5018221;28;20039;-78
2024/02/22 10:56:23;;;;;;;1.38;1.20;;;11.90;99.90;;;;;;5018025;28;20105;-76
2024/02/22 10:58:57;;;;;;;2.88;1.10;;;11.90;99.90;;;;;;5017606;28;20022;-76
2024/02/22 11:01:26;;;;;;;1.08;0.88;;;12.00;99.90;;;;;;5019077;28;20037;-76
2024/02/22 11:03:52;;;;;;;1.40;1.02;;;12.10;99.90;;;;;;5015711;28;20708;-78
2024/02/22 11:06:21;;;;;;;1.05;0.93;;;12.10;99.90;;;;;;5018715;28;20061;-76
2024/02/22 11:08:49;;;;;;;0.73;0.73;;;12.20;99.90;;;;;;5018233;28;20433;-77
2024/02/22 11:11:26;;;;;;;0.82;0.68;;;12.30;99.90;;;;;;5017938;28;20041;-76
2024/02/22 11:13:59;;;;;;;0.98;0.65;;;12.50;99.90;;;;;;5017990;28;20033;-76
2024/02/22 11:16:37;;;;;;;2.55;1.17;;;12.50;99.90;;;;;;5015432;28;20034;-78
2024/02/22 11:19:12;;;;;;;0.82;0.82;;;12.20;99.90;;;;;;5017172;28;20048;-77
2024/02/22 11:21:39;;;;;;;0.70;0.70;;;12.10;99.90;;;;;;5016852;28;20857;-72
2024/02/22 11:24:14;;;;;;;1.95;1.00;;;12.20;99.90;;;;;;5018180;28;20053;-72
2024/02/22 11:26:40;;;;;;;1.83;0.90;;;12.10;99.90;;;;;;5015625;28;20030;-73
2024/02/22 11:29:07;;;;;;;1.05;0.50;;;12.20;99.90;;;;;;5016408;28;20500;-73
2024/02/22 11:31:35;;;;;;;0.52;0.52;;;12.40;99.90;;;;;;5012100;28;20040;-72
2024/02/22 11:34:02;;;;;;;0.60;0.60;;;12.30;99.90;;;;;;5017810;28;20140;-72
2024/02/22 11:36:29;;;;;;;1.58;0.50;;;12.00;99.90;;;;;;5016942;28;20046;-72
2024/02/22 11:39:06;;;;;;;1.25;0.60;;;12.00;99.90;;;;;;5015937;28;20037;-72
2024/02/22 11:41:32;;;;;;;0.75;0.70;;;11.90;99.90;;;;;;5015218;28;20167;-72
2024/02/22 11:44:03;;;;;;;0.80;0.80;;;11.90;99.90;;;;;;5016927;28;20520;-72
2024/02/22 11:46:37;;;;;;;1.35;0.95;;;11.80;99.90;;;;;;5016724;28;20053;-73
2024/02/22 11:49:08;;;;;;;0.60;0.60;;;11.80;99.90;;;;;;5016302;28;20025;-73
2024/02/22 11:51:35;;;;;;;2.15;0.70;;;11.80;99.90;;;;;;5013249;28;20025;-73
2024/02/22 11:54:01;;;;;;;3.08;0.82;;;11.90;99.90;;;;;;5017183;28;20044;-73
2024/02/22 11:56:28;;;;;;;0.82;0.73;;;12.00;99.90;;;;;;5014394;28;20030;-73
2024/02/22 11:58:56;;;;;;;0.40;0.40;;;12.10;99.90;;;;;;5014454;28;20044;-72
2024/02/22 12:01:22;;;;;;;0.60;0.60;;;12.00;99.90;;;;;;5017775;28;20060;-72
2024/02/22 12:03:51;;;;;;;0.75;0.70;;;12.00;99.90;;;;;;5015853;28;20025;-72
2024/02/22 12:06:19;;;;;;;0.50;0.50;;;12.10;99.90;;;;;;5013880;28;20090;-72
2024/02/22 12:08:46;;;;;;;1.38;0.60;;;11.90;99.90;;;;;;5016897;28;20640;-72
2024/02/22 12:11:15;;;;;;;0.40;0.40;;;11.90;99.90;;;;;;5016903;28;20061;-77
2024/02/22 12:13:41;;;;;;;2.15;0.70;;;12.00;99.90;;;;;;5014797;28;20038;-73
2024/02/22 12:16:08;;;;;;;0.93;0.77;;;12.00;99.90;;;;;;5014487;28;20055;-72
2024/02/22 12:18:35;;;;;;;1.52;0.55;;;12.00;99.90;;;;;;5012324;28;20030;-74
2024/02/22 12:21:09;;;;;;;0.35;0.32;;;12.00;99.90;;;;;;5017393;28;20367;-74
2024/02/22 12:23:35;;;;;;;0.50;0.50;;;11.80;99.90;;;;;;5013530;28;20036;-75
2024/02/22 12:26:06;;;;;;;0.80;0.68;;;11.90;99.90;;;;;;5018330;28;20080;-76
2024/02/22 12:28:35;;;;;;;0.80;0.65;;;11.90;99.90;;;;;;5019759;28;20033;-76
2024/02/22 12:31:06;;;;;;;0.50;0.40;;;12.00;99.90;;;;;;5021149;28;20346;-78
2024/02/22 12:33:33;;;;;;;2.55;1.27;;;12.00;99.90;;;;;;5023961;28;20025;-78
2024/02/22 12:36:01;;;;;;;0.40;0.40;;;12.00;99.90;;;;;;5019630;28;20029;-78
2024/02/22 12:38:27;;;;;;;0.40;0.40;;;12.10;99.90;;;;;;5018544;28;20109;-77
2024/02/22 12:40:53;;;;;;;2.63;0.80;;;12.10;99.90;;;;;;5017599;28;20042;-77
2024/02/22 12:43:19;;;;;;;0.55;0.55;;;12.10;99.90;;;;;;5020626;28;20865;-77
2024/02/22 12:45:47;;;;;;;1.25;0.80;;;12.20;99.90;;;;;;5020047;28;20112;-77
2024/02/22 12:48:13;;;;;;;1.67;0.43;;;12.40;99.90;;;;;;5019970;28;20032;-77
2024/02/22 12:50:39;;;;;;;0.68;0.40;;;12.70;99.90;;;;;;5018711;28;20029;-77